Terminal Aerodrome Forecast
Issued by NWS

Home | Current Version | Previous Version | Text Only | Print | Product List | Glossary On
Versions: 1 2 3 4 5 6 7 8 9 10 11 12 13 14 15 16 17 18 19 20
000
FTUS46 KLOX 260500 RRA
TAFSBP
TAF
KSBP 260547Z 2606/2706 31007KT P6SM SCT120
     FM261200 VRB03KT P6SM SCT150
     FM261600 32008KT P6SM SKC
     FM262000 32017G25KT P6SM SKC
     FM270300 32010KT P6SM SKC=

USA.gov is the U.S. government's official web portal to all federal, state and local government web resources and services.